createdAt,value
2022-08-29T00:01:00.807Z,3.80
2022-08-29T00:03:29.204Z,4.05
2022-08-29T00:05:56.628Z,3.95
2022-08-29T00:08:24.502Z,3.83
2022-08-29T00:10:51.712Z,3.83
2022-08-29T00:13:19.258Z,3.85
2022-08-29T00:15:46.668Z,4.20
2022-08-29T00:18:15.673Z,4.00
2022-08-29T00:20:43.934Z,3.92
2022-08-29T00:23:11.349Z,4.20
2022-08-29T00:25:38.388Z,4.60
2022-08-29T00:28:06.410Z,4.40
2022-08-29T00:30:34.567Z,3.78
2022-08-29T00:33:01.715Z,4.00
2022-08-29T00:35:32.859Z,4.15
2022-08-29T00:38:00.240Z,3.90
2022-08-29T00:40:51.847Z,3.90
2022-08-29T00:43:28.608Z,4.18
2022-08-29T00:46:01.398Z,3.85
2022-08-29T00:48:29.207Z,4.07
2022-08-29T00:51:01.546Z,3.95
2022-08-29T00:53:33.782Z,3.80
2022-08-29T00:56:02.359Z,3.90
2022-08-29T00:58:34.947Z,4.03
2022-08-29T01:01:02.440Z,4.15
2022-08-29T01:03:33.795Z,4.05
2022-08-29T01:06:02.196Z,4.25
2022-08-29T01:08:30.284Z,4.13
2022-08-29T01:10:57.587Z,4.22
2022-08-29T01:13:29.949Z,4.10
2022-08-29T01:15:58.408Z,4.28
2022-08-29T01:18:27.160Z,4.22
2022-08-29T01:20:57.120Z,4.78
2022-08-29T01:23:41.763Z,3.92
2022-08-29T01:26:11.322Z,3.95
2022-08-29T01:28:42.971Z,4.00
2022-08-29T01:31:37.680Z,4.25
2022-08-29T01:34:04.019Z,4.97
2022-08-29T01:36:39.147Z,4.60
2022-08-29T01:39:07.761Z,4.30
2022-08-29T01:41:35.107Z,4.40
2022-08-29T01:44:08.515Z,4.80
2022-08-29T01:46:35.661Z,4.40
2022-08-29T01:49:04.642Z,4.60
2022-08-29T01:51:31.515Z,4.78
2022-08-29T01:53:58.827Z,4.75
2022-08-29T01:56:32.114Z,4.78
2022-08-29T01:59:01.722Z,4.70
2022-08-29T02:01:34.159Z,4.43
2022-08-29T02:04:01.429Z,4.60
2022-08-29T02:06:28.860Z,4.55
2022-08-29T02:08:56.080Z,4.80
2022-08-29T02:11:23.511Z,4.13
2022-08-29T02:13:53.899Z,4.57
2022-08-29T02:16:21.186Z,4.88
2022-08-29T02:18:48.805Z,4.13
2022-08-29T02:21:18.742Z,4.50
2022-08-29T02:23:48.798Z,4.68
2022-08-29T02:26:16.811Z,4.68
2022-08-29T02:28:43.893Z,4.82
2022-08-29T02:31:11.000Z,4.53
2022-08-29T02:33:38.477Z,4.68
2022-08-29T02:36:06.959Z,5.22
2022-08-29T02:38:34.677Z,4.47
2022-08-29T02:41:02.510Z,4.72
2022-08-29T02:43:29.667Z,4.90
2022-08-29T02:45:56.668Z,5.25
2022-08-29T02:48:24.632Z,4.90
2022-08-29T02:50:55.369Z,5.20
2022-08-29T02:53:25.206Z,4.45
2022-08-29T02:55:52.223Z,4.93
2022-08-29T02:58:23.384Z,4.88
2022-08-29T03:00:50.904Z,4.70
2022-08-29T03:03:18.947Z,5.00
2022-08-29T03:05:46.570Z,4.93
2022-08-29T03:08:14.583Z,4.72
2022-08-29T03:10:43.327Z,4.75
2022-08-29T03:13:10.828Z,4.63
2022-08-29T03:15:38.268Z,5.00
2022-08-29T03:18:06.704Z,4.63
2022-08-29T03:20:35.882Z,4.75
2022-08-29T03:23:03.757Z,4.90
2022-08-29T03:25:31.461Z,5.70
2022-08-29T03:27:58.403Z,4.95
2022-08-29T03:30:25.977Z,5.07
2022-08-29T03:32:53.421Z,5.30
2022-08-29T03:35:20.865Z,4.97
2022-08-29T03:37:47.936Z,4.97
2022-08-29T03:40:15.723Z,5.20
2022-08-29T03:42:42.948Z,4.88
2022-08-29T03:45:13.797Z,5.50
2022-08-29T03:47:41.374Z,5.25
2022-08-29T03:50:09.925Z,5.50
2022-08-29T03:52:36.847Z,5.63
2022-08-29T03:55:04.644Z,5.55
2022-08-29T03:57:31.560Z,6.20
2022-08-29T03:59:58.654Z,6.68
2022-08-29T04:02:25.555Z,6.03
2022-08-29T04:04:52.903Z,6.00
2022-08-29T04:07:19.843Z,5.70
2022-08-29T04:09:46.782Z,6.05
2022-08-29T04:12:14.575Z,5.72
2022-08-29T04:14:41.902Z,6.03
2022-08-29T04:17:09.242Z,5.80
2022-08-29T04:19:37.098Z,7.25
2022-08-29T04:22:05.335Z,8.00
2022-08-29T04:24:33.282Z,7.13
2022-08-29T04:27:00.632Z,6.50
2022-08-29T04:29:27.952Z,6.47
2022-08-29T04:31:54.951Z,6.40
2022-08-29T04:34:21.966Z,7.53
2022-08-29T04:36:49.026Z,5.93
2022-08-29T04:39:16.003Z,5.82
2022-08-29T04:41:43.579Z,5.60
2022-08-29T04:44:12.942Z,5.45
2022-08-29T04:46:40.211Z,5.30
2022-08-29T04:49:07.571Z,5.45
2022-08-29T04:51:35.938Z,5.53
2022-08-29T04:54:04.771Z,6.40
2022-08-29T04:56:31.667Z,5.55
2022-08-29T04:58:58.678Z,5.68
2022-08-29T05:01:27.258Z,5.60
2022-08-29T05:03:54.572Z,5.47
2022-08-29T05:06:23.437Z,5.75
2022-08-29T05:08:58.802Z,5.35
2022-08-29T05:11:28.523Z,5.60
2022-08-29T05:13:55.472Z,5.85
2022-08-29T05:16:22.583Z,5.43
2022-08-29T05:18:49.529Z,5.55
2022-08-29T05:21:33.988Z,5.75
2022-08-29T05:24:04.939Z,5.50
2022-08-29T05:26:34.283Z,4.63
2022-08-29T05:29:01.239Z,4.68
2022-08-29T05:31:28.397Z,5.25
2022-08-29T05:33:55.436Z,4.72
2022-08-29T05:36:22.323Z,4.90
2022-08-29T05:38:49.223Z,4.97
2022-08-29T05:41:17.964Z,5.60
2022-08-29T05:43:44.922Z,5.75
2022-08-29T05:46:11.981Z,6.28
2022-08-29T05:48:42.656Z,5.60
2022-08-29T05:51:16.043Z,12.52
2022-08-29T05:53:42.944Z,10.98
2022-08-29T05:56:09.984Z,9.23
2022-08-29T05:58:36.920Z,6.50
2022-08-29T06:01:03.860Z,6.95
2022-08-29T06:03:30.880Z,8.52
2022-08-29T06:05:57.934Z,6.13
2022-08-29T06:08:24.782Z,7.50
2022-08-29T06:10:51.649Z,6.93
2022-08-29T06:13:18.806Z,6.22
2022-08-29T06:15:45.791Z,6.53
2022-08-29T06:18:13.570Z,5.15
2022-08-29T06:20:41.637Z,4.78
2022-08-29T06:23:08.702Z,4.70
2022-08-29T06:25:40.093Z,4.32
2022-08-29T06:28:08.164Z,5.00
2022-08-29T06:30:35.309Z,4.85
2022-08-29T06:33:02.687Z,4.55
2022-08-29T06:35:30.034Z,4.68
2022-08-29T06:37:57.025Z,4.75
2022-08-29T06:40:24.111Z,4.72
2022-08-29T06:42:51.160Z,5.00
2022-08-29T06:45:18.257Z,4.88
2022-08-29T06:47:47.406Z,5.50
2022-08-29T06:50:15.770Z,5.32
2022-08-29T06:52:42.881Z,4.82
2022-08-29T06:55:10.833Z,4.85
2022-08-29T06:57:40.403Z,4.80
2022-08-29T07:00:16.863Z,5.38
2022-08-29T07:02:52.731Z,5.28
2022-08-29T07:05:22.027Z,4.93
2022-08-29T07:07:49.439Z,5.30
2022-08-29T07:10:21.572Z,5.13
2022-08-29T07:12:49.647Z,5.22
2022-08-29T07:15:16.735Z,5.57
2022-08-29T07:17:43.568Z,5.13
2022-08-29T07:20:11.342Z,5.20
2022-08-29T07:22:38.231Z,5.07
2022-08-29T07:25:05.901Z,5.03
2022-08-29T07:27:32.939Z,5.10
2022-08-29T07:29:59.979Z,4.97
2022-08-29T07:32:26.956Z,5.10
2022-08-29T07:34:56.121Z,4.75
2022-08-29T07:37:23.454Z,4.85
2022-08-29T07:39:50.464Z,5.07
2022-08-29T07:42:17.791Z,4.63
2022-08-29T07:44:44.747Z,5.00
2022-08-29T07:47:11.829Z,4.47
2022-08-29T07:49:41.321Z,4.60
2022-08-29T07:52:08.592Z,4.70
2022-08-29T07:54:35.509Z,4.38
2022-08-29T07:57:02.406Z,4.60
2022-08-29T07:59:30.825Z,4.97
2022-08-29T08:01:57.768Z,5.03
2022-08-29T08:04:26.097Z,4.90
2022-08-29T08:06:53.065Z,4.70
2022-08-29T08:09:20.025Z,4.53
2022-08-29T08:11:47.163Z,4.43
2022-08-29T08:14:14.204Z,4.75
2022-08-29T08:16:44.283Z,4.20
2022-08-29T08:19:15.671Z,4.57
2022-08-29T08:21:49.955Z,4.55
2022-08-29T08:24:19.737Z,4.78
2022-08-29T08:26:48.443Z,4.95
2022-08-29T08:29:15.413Z,4.40
2022-08-29T08:31:44.744Z,4.82
2022-08-29T08:34:11.767Z,4.78
2022-08-29T08:36:40.945Z,5.13
2022-08-29T08:39:08.798Z,4.60
2022-08-29T08:41:57.669Z,4.90
2022-08-29T08:44:24.586Z,4.80
2022-08-29T08:46:58.665Z,4.72
2022-08-29T08:49:45.834Z,5.10
2022-08-29T08:52:30.676Z,4.82
2022-08-29T08:55:11.996Z,4.63
2022-08-29T08:57:46.339Z,4.90
2022-08-29T09:00:13.516Z,4.47
2022-08-29T09:03:01.838Z,4.15
2022-08-29T09:05:35.020Z,4.13
2022-08-29T09:08:03.074Z,4.40
2022-08-29T09:10:48.869Z,4.10
2022-08-29T09:13:50.941Z,3.97
2022-08-29T09:16:25.134Z,3.65
2022-08-29T09:18:54.255Z,4.20
2022-08-29T09:21:40.191Z,3.53
2022-08-29T09:24:13.779Z,3.92
2022-08-29T09:26:40.800Z,3.90
2022-08-29T09:29:08.147Z,3.97
2022-08-29T09:31:35.808Z,3.80
2022-08-29T09:34:12.327Z,3.67
2022-08-29T09:36:47.845Z,3.55
2022-08-29T09:39:17.778Z,3.42
2022-08-29T09:41:48.366Z,3.97
2022-08-29T09:44:22.674Z,3.40
2022-08-29T09:47:23.925Z,3.88
2022-08-29T09:50:19.166Z,3.45
2022-08-29T09:52:57.219Z,3.42
2022-08-29T09:55:38.495Z,3.83
2022-08-29T09:58:09.273Z,4.15
2022-08-29T10:03:08.984Z,3.33
2022-08-29T10:05:38.439Z,3.85
2022-08-29T10:08:06.941Z,3.40
2022-08-29T10:10:36.144Z,3.80
2022-08-29T10:13:09.445Z,3.38
2022-08-29T10:15:50.911Z,3.30
2022-08-29T10:18:33.381Z,3.00
2022-08-29T10:21:05.771Z,3.17
2022-08-29T10:23:48.840Z,3.42
2022-08-29T10:26:54.977Z,3.33
2022-08-29T10:29:40.243Z,3.05
2022-08-29T10:32:36.891Z,3.47
2022-08-29T10:35:03.673Z,3.30
2022-08-29T10:37:50.804Z,3.40
2022-08-29T10:40:26.408Z,3.17
2022-08-29T10:43:15.350Z,3.15
2022-08-29T10:46:11.635Z,3.20
2022-08-29T10:48:58.182Z,3.72
2022-08-29T10:51:28.071Z,3.13
2022-08-29T10:54:12.187Z,3.17
2022-08-29T10:56:46.424Z,2.92
2022-08-29T10:59:42.509Z,3.28
2022-08-29T11:02:21.871Z,3.28
2022-08-29T11:04:54.861Z,3.28
2022-08-29T11:07:36.338Z,3.33
2022-08-29T11:10:14.553Z,3.08
2022-08-29T11:13:05.441Z,3.17
2022-08-29T11:18:09.389Z,3.20
2022-08-29T11:20:43.918Z,3.63
2022-08-29T11:23:14.198Z,3.30
2022-08-29T11:25:42.327Z,3.20
2022-08-29T11:28:38.695Z,2.92
2022-08-29T11:31:37.685Z,3.05
2022-08-29T11:34:35.521Z,3.13
2022-08-29T11:37:33.453Z,2.85
2022-08-29T11:40:47.865Z,3.20
2022-08-29T11:43:20.634Z,2.70
2022-08-29T11:46:01.081Z,2.78
2022-08-29T11:48:33.003Z,2.78
2022-08-29T11:51:20.700Z,2.65
2022-08-29T11:53:47.851Z,4.47
2022-08-29T11:56:14.857Z,2.88
2022-08-29T11:58:48.832Z,2.65
2022-08-29T12:01:24.982Z,3.08
2022-08-29T12:03:54.203Z,2.92
2022-08-29T12:07:01.280Z,2.67
2022-08-29T12:09:50.168Z,2.55
2022-08-29T12:12:37.090Z,2.30
2022-08-29T12:15:30.017Z,3.20
2022-08-29T12:18:17.944Z,2.63
2022-08-29T12:20:54.750Z,2.50
2022-08-29T12:23:36.430Z,2.40
2022-08-29T12:26:41.606Z,2.50
2022-08-29T12:29:17.723Z,2.38
2022-08-29T12:32:22.166Z,2.13
2022-08-29T12:35:11.259Z,2.80
2022-08-29T12:38:04.292Z,2.70
2022-08-29T12:40:49.562Z,2.65
2022-08-29T12:43:31.985Z,2.92
2022-08-29T12:45:59.553Z,2.53
2022-08-29T12:48:39.566Z,2.60
2022-08-29T12:51:07.012Z,2.43
2022-08-29T12:53:36.064Z,2.95
2022-08-29T12:56:15.325Z,2.35
2022-08-29T12:58:46.514Z,2.50
2022-08-29T13:01:29.919Z,2.50
2022-08-29T13:03:56.969Z,2.97
2022-08-29T13:06:24.265Z,2.70
2022-08-29T13:08:51.340Z,2.83
2022-08-29T13:11:24.021Z,2.72
2022-08-29T13:13:51.004Z,2.95
2022-08-29T13:16:28.958Z,2.78
2022-08-29T13:19:10.143Z,2.60
2022-08-29T13:21:38.101Z,2.40
2022-08-29T13:24:16.507Z,2.55
2022-08-29T13:27:03.197Z,2.90
2022-08-29T13:29:42.545Z,2.53
2022-08-29T13:32:23.210Z,2.40
2022-08-29T13:37:45.922Z,2.33
2022-08-29T13:40:54.965Z,2.72
2022-08-29T13:43:34.047Z,2.30
2022-08-29T13:46:14.858Z,1.95
2022-08-29T13:48:42.897Z,1.70
2022-08-29T13:51:10.312Z,1.63
2022-08-29T13:53:37.460Z,1.98
2022-08-29T13:56:04.998Z,1.60
2022-08-29T13:58:32.605Z,2.05
2022-08-29T14:00:59.642Z,2.00
2022-08-29T14:03:26.803Z,1.92
2022-08-29T14:05:54.080Z,2.10
2022-08-29T14:08:21.351Z,2.30
2022-08-29T14:10:48.258Z,1.92
2022-08-29T14:13:15.125Z,2.08
2022-08-29T14:15:42.151Z,2.00
2022-08-29T14:18:09.363Z,1.80
2022-08-29T14:20:36.462Z,2.20
2022-08-29T14:23:04.178Z,2.40
2022-08-29T14:25:31.189Z,2.25
2022-08-29T14:27:58.099Z,2.17
2022-08-29T14:30:25.712Z,2.20
2022-08-29T14:32:52.953Z,2.53
2022-08-29T14:35:26.423Z,2.20
2022-08-29T14:37:59.502Z,2.00
2022-08-29T14:40:28.974Z,2.10
2022-08-29T14:42:56.674Z,2.30
2022-08-29T14:45:23.983Z,2.25
2022-08-29T14:47:51.058Z,2.20
2022-08-29T14:50:18.710Z,2.20
2022-08-29T14:52:45.922Z,2.00
2022-08-29T14:55:13.450Z,2.20
2022-08-29T14:57:41.028Z,2.60
2022-08-29T15:00:11.921Z,2.42
2022-08-29T15:05:06.876Z,2.50
2022-08-29T15:07:34.086Z,2.50
2022-08-29T15:10:01.562Z,2.55
2022-08-29T15:12:28.518Z,2.63
2022-08-29T15:14:56.412Z,2.70
2022-08-29T15:17:23.857Z,2.28
2022-08-29T15:22:39.438Z,2.65
2022-08-29T15:25:06.896Z,2.38
2022-08-29T15:27:34.043Z,2.40
2022-08-29T15:30:01.137Z,2.40
2022-08-29T15:32:28.171Z,2.40
2022-08-29T15:34:55.063Z,2.58
2022-08-29T15:37:22.538Z,2.20
2022-08-29T15:39:49.570Z,2.55
2022-08-29T15:42:21.466Z,2.10
2022-08-29T15:44:51.181Z,2.10
2022-08-29T15:47:18.352Z,2.40
2022-08-29T15:49:45.248Z,2.50
2022-08-29T15:52:12.577Z,2.53
2022-08-29T15:54:39.530Z,2.60
2022-08-29T15:57:25.052Z,3.00
2022-08-29T15:59:59.716Z,2.70
2022-08-29T16:02:27.989Z,2.60
2022-08-29T16:04:56.691Z,2.70
2022-08-29T16:07:24.670Z,3.30
2022-08-29T16:09:56.037Z,2.85
2022-08-29T16:12:22.921Z,3.05
2022-08-29T16:15:09.495Z,2.80
2022-08-29T16:17:37.556Z,3.03
2022-08-29T16:20:06.544Z,2.90
2022-08-29T16:22:33.500Z,2.97
2022-08-29T16:25:00.829Z,3.08
2022-08-29T16:27:28.012Z,2.80
2022-08-29T16:29:55.266Z,2.90
2022-08-29T16:32:22.216Z,2.90
2022-08-29T16:34:50.044Z,2.70
2022-08-29T16:37:17.260Z,2.65
2022-08-29T16:39:44.336Z,3.40
2022-08-29T16:42:11.631Z,3.22
2022-08-29T16:44:39.563Z,3.08
2022-08-29T16:47:06.921Z,3.25
2022-08-29T16:49:33.938Z,3.35
2022-08-29T16:52:01.007Z,2.92
2022-08-29T16:54:27.965Z,3.42
2022-08-29T16:56:54.896Z,3.00
2022-08-29T16:59:21.960Z,2.97
2022-08-29T17:01:51.662Z,3.20
2022-08-29T17:04:24.988Z,3.00
2022-08-29T17:06:52.497Z,3.65
2022-08-29T17:09:21.726Z,3.47
2022-08-29T17:11:49.733Z,3.15
2022-08-29T17:14:18.689Z,2.90
2022-08-29T17:16:48.077Z,3.28
2022-08-29T17:19:15.854Z,3.00
2022-08-29T17:21:43.617Z,3.10
2022-08-29T17:24:11.843Z,2.53
2022-08-29T17:26:43.746Z,3.50
2022-08-29T17:29:11.136Z,3.10
2022-08-29T17:31:38.749Z,3.70
2022-08-29T17:34:07.976Z,3.13
2022-08-29T17:36:36.792Z,3.08
2022-08-29T17:39:05.149Z,2.67
2022-08-29T17:41:32.874Z,3.05
2022-08-29T17:44:02.444Z,3.00
2022-08-29T17:46:29.942Z,3.10
2022-08-29T17:48:57.395Z,3.40
2022-08-29T17:51:24.571Z,3.03
2022-08-29T17:53:52.140Z,3.50
2022-08-29T17:56:28.861Z,3.13
2022-08-29T17:58:56.448Z,3.20
2022-08-29T18:01:23.745Z,3.42
2022-08-29T18:03:50.924Z,3.42
2022-08-29T18:06:19.051Z,3.50
2022-08-29T18:08:48.499Z,3.35
2022-08-29T18:11:16.759Z,4.75
2022-08-29T18:13:44.680Z,3.70
2022-08-29T18:16:12.434Z,3.38
2022-08-29T18:18:39.446Z,3.60
2022-08-29T18:21:07.767Z,3.97
2022-08-29T18:23:35.510Z,3.50
2022-08-29T18:26:05.015Z,3.25
2022-08-29T18:28:32.898Z,3.67
2022-08-29T18:31:00.301Z,3.33
2022-08-29T18:33:38.714Z,3.47
2022-08-29T18:36:11.593Z,3.70
2022-08-29T18:38:38.493Z,3.17
2022-08-29T18:41:05.596Z,3.30
2022-08-29T18:43:33.329Z,3.88
2022-08-29T18:46:02.156Z,3.40
2022-08-29T18:48:30.632Z,3.50
2022-08-29T18:50:58.685Z,3.40
2022-08-29T18:53:29.260Z,3.30
2022-08-29T18:55:56.876Z,3.20
2022-08-29T18:58:27.384Z,3.63
2022-08-29T19:00:55.218Z,3.50
2022-08-29T19:03:22.880Z,3.63
2022-08-29T19:05:51.538Z,3.38
2022-08-29T19:08:23.757Z,3.65
2022-08-29T19:10:55.417Z,3.33
2022-08-29T19:13:25.296Z,3.50
2022-08-29T19:15:56.313Z,3.25
2022-08-29T19:18:23.784Z,3.10
2022-08-29T19:20:50.857Z,3.60
2022-08-29T19:23:18.309Z,4.18
2022-08-29T19:25:46.284Z,4.70
2022-08-29T19:28:14.660Z,3.67
2022-08-29T19:30:43.247Z,3.30
2022-08-29T19:33:11.112Z,3.45
2022-08-29T19:35:38.888Z,3.03
2022-08-29T19:38:07.245Z,3.20
2022-08-29T19:40:39.018Z,3.20
2022-08-29T19:43:10.415Z,3.15
2022-08-29T19:45:42.997Z,3.13
2022-08-29T19:48:15.137Z,3.05
2022-08-29T19:50:47.401Z,3.28
2022-08-29T19:53:24.511Z,2.83
2022-08-29T19:55:55.645Z,2.90
2022-08-29T19:58:24.998Z,2.85
2022-08-29T20:01:01.136Z,3.45
2022-08-29T20:03:28.202Z,2.92
2022-08-29T20:05:56.265Z,3.72
2022-08-29T20:08:23.740Z,2.80
2022-08-29T20:10:52.091Z,3.08
2022-08-29T20:13:19.952Z,3.20
2022-08-29T20:15:47.013Z,3.17
2022-08-29T20:18:14.107Z,3.38
2022-08-29T20:20:41.427Z,3.17
2022-08-29T20:23:08.336Z,2.92
2022-08-29T20:25:35.510Z,3.40
2022-08-29T20:28:03.344Z,3.10
2022-08-29T20:30:32.570Z,3.30
2022-08-29T20:33:00.175Z,3.25
2022-08-29T20:35:27.231Z,3.10
2022-08-29T20:37:58.550Z,3.45
2022-08-29T20:40:25.511Z,3.17
2022-08-29T20:42:52.557Z,3.45
2022-08-29T20:45:19.543Z,3.40
2022-08-29T20:47:46.454Z,3.75
2022-08-29T20:50:13.417Z,4.13
2022-08-29T20:52:40.692Z,3.72
2022-08-29T20:55:07.862Z,3.15
2022-08-29T20:57:34.824Z,3.15
2022-08-29T21:00:01.745Z,3.33
2022-08-29T21:02:28.685Z,3.25
2022-08-29T21:04:55.654Z,3.65
2022-08-29T21:07:22.535Z,3.50
2022-08-29T21:09:50.324Z,3.47
2022-08-29T21:12:18.137Z,3.50
2022-08-29T21:14:45.471Z,3.92
2022-08-29T21:17:13.415Z,3.78
2022-08-29T21:19:40.838Z,3.55
2022-08-29T21:22:09.716Z,3.50
2022-08-29T21:24:37.291Z,3.70
2022-08-29T21:27:04.530Z,3.40
2022-08-29T21:29:31.541Z,3.80
2022-08-29T21:31:58.443Z,3.53
2022-08-29T21:34:25.402Z,3.50
2022-08-29T21:36:52.565Z,3.95
2022-08-29T21:39:28.163Z,3.70
2022-08-29T21:41:56.925Z,3.58
2022-08-29T21:44:24.047Z,3.72
2022-08-29T21:46:51.479Z,3.33
2022-08-29T21:49:19.997Z,4.00
2022-08-29T21:51:47.650Z,4.10
2022-08-29T21:54:16.710Z,4.45
2022-08-29T21:56:45.185Z,3.95
2022-08-29T21:59:14.699Z,3.95
2022-08-29T22:01:42.189Z,3.95
2022-08-29T22:04:11.552Z,3.70
2022-08-29T22:06:46.985Z,3.80
2022-08-29T22:09:19.860Z,3.92
2022-08-29T22:11:48.950Z,3.90
2022-08-29T22:14:16.011Z,4.47
2022-08-29T22:16:43.531Z,4.20
2022-08-29T22:19:16.381Z,4.32
2022-08-29T22:21:49.025Z,4.47
2022-08-29T22:24:17.350Z,4.30
2022-08-29T22:26:45.481Z,4.03
2022-08-29T22:29:13.598Z,4.32
2022-08-29T22:31:42.418Z,4.30
2022-08-29T22:34:11.305Z,4.30
2022-08-29T22:36:38.405Z,4.18
2022-08-29T22:39:05.723Z,4.57
2022-08-29T22:41:32.942Z,4.13
2022-08-29T22:44:42.378Z,4.68
2022-08-29T22:46:47.192Z,4.60
2022-08-29T22:49:14.071Z,4.32
2022-08-29T22:51:40.981Z,4.22
2022-08-29T22:54:07.843Z,4.40
2022-08-29T22:56:37.573Z,4.32
2022-08-29T22:59:05.999Z,4.30
2022-08-29T23:01:37.519Z,4.70
2022-08-29T23:04:05.820Z,4.35
2022-08-29T23:06:32.856Z,4.38
2022-08-29T23:09:00.124Z,4.80
2022-08-29T23:11:27.651Z,4.72
2022-08-29T23:13:55.901Z,4.90
2022-08-29T23:16:24.022Z,4.70
2022-08-29T23:18:51.526Z,4.63
2022-08-29T23:21:19.276Z,5.10
2022-08-29T23:23:46.130Z,4.50
2022-08-29T23:26:13.059Z,4.30
2022-08-29T23:28:40.207Z,4.63
2022-08-29T23:31:07.189Z,4.60
2022-08-29T23:33:34.126Z,4.82
2022-08-29T23:36:00.992Z,5.38
2022-08-29T23:38:27.934Z,4.65
2022-08-29T23:40:57.176Z,5.00
2022-08-29T23:43:25.256Z,4.85
2022-08-29T23:45:52.176Z,5.07
2022-08-29T23:48:25.900Z,5.47
2022-08-29T23:50:53.542Z,4.82
2022-08-29T23:53:22.496Z,4.72
2022-08-29T23:55:50.543Z,4.90
2022-08-29T23:58:18.473Z,5.53
